• Join FlightAware (Why Join?)
  • Login
  • US Flag 
01:46PM EDT


 

Airport Tracker/Info


-or-


 

Live Flight TrackerFlight Track Log ✈ UAL822 ✈ 22-Apr-2013 ✈ KIAD - KBOS

Flight Track Log - Related Links

Times and Time Zones

All times are in EDT time to prevent confusion due to time zone crossing. See the UAL822 flight status page for this flight to view local times or setup timezone preferences in your user account.

Time Position Orientation Groundspeed Altitude Reporting Facility
EDT Latitude Longitude Course Direction KTS MPH feet Rate Location/Type
08:37PM 38.9833 -77.5000 83° East 184 212 2,500  Level Potomac TRACON
08:38PM 39.0333 -77.5000 360° North 226 260 4,800 2,520 Climbing Potomac TRACON
08:39PM 39.1167 -77.4667 17° North 281 323 7,300 2,580 Climbing Potomac TRACON
08:40PM 39.0489 -76.8401 78° East  Level FlightAware Approximate
08:40PM 39.1667 -77.4000 46° Northeast 318 366 10,000  Level Potomac TRACON
08:41PM 39.0667 -76.6815 90° East  Level FlightAware Approximate
08:41PM 39.1500 -77.2667 99° East 353 406 10,900  Level Potomac TRACON
08:42PM 39.1004 -76.5291 83° East  Level FlightAware Approximate
08:42PM 39.1167 -77.1500 110° East 365 420 13,900  Level Potomac TRACON
08:43PM 39.1149 -76.3691 83° East  Level FlightAware Approximate
08:44PM 39.0836 -76.8831 99° East 387 445 17,900  Level Washington Center
08:45PM 39.0997 -76.7417 82° East 387 445 20,000 1,980 Climbing Washington Center
08:46PM 39.1136 -76.5867 83° East 401 461 21,900 1,500 Climbing Washington Center
08:47PM 39.1292 -76.4344 82° East 421 484 23,000 540 Climbing Washington Center
08:48PM 39.1428 -76.2767 84° East 434 499 23,000 480 Level Washington Center
08:49PM 39.1978 -76.1300 64° Northeast 439 505 24,000 1,200 Climbing Washington Center
08:50PM 39.2817 -75.9964 51° Northeast 445 512 25,500 1,440 Climbing Washington Center
08:51PM 39.3675 -75.8628 50° Northeast 467 537 26,900 960 Climbing Washington Center
08:52PM 39.4550 -75.7206 51° Northeast 484 557 27,500 720 Climbing Washington Center
08:53PM 39.5489 -75.5728 50° Northeast 506 582 28,400 1,020 Climbing Washington Center
08:54PM 39.6425 -75.4192 52° Northeast 530 610 29,600 1,200 Climbing Washington Center
08:55PM 39.7361 -75.2678 51° Northeast 537 618 30,800 600 Climbing Washington Center
08:57PM 39.8494 -75.0756 52° Northeast 576 663 31,000 60 Climbing New York Center
08:58PM 39.9469 -74.9192 51° Northeast 552 635 31,000  Level New York Center
08:59PM 40.0375 -74.7700 52° Northeast 537 618 31,000  Level New York Center
09:00PM 40.1214 -74.6308 52° Northeast 534 615 31,000 -60 Level New York Center
09:01PM 40.2242 -74.4761 49° Northeast 550 633 30,900  Descending New York Center
09:02PM 40.3408 -74.3464 40° Northeast 550 633 31,000 -480 Climbing New York Center
09:03PM 40.5183 -74.1300 43° Northeast 554 638 29,700 -1,260 Descending Boston Center
09:04PM 40.6000 -73.9489 59° Northeast 536 617 27,800 -1,800 Descending Boston Center
09:05PM 40.6669 -73.7808 62° Northeast 523 602 26,100 -1,500 Descending Boston Center
09:06PM 40.7331 -73.6425 58° Northeast 503 579 24,800 -1,140 Descending Boston Center
09:07PM 40.8114 -73.5094 52° Northeast 477 549 23,900 -540 Descending Boston Center
09:08PM 40.8958 -73.3847 48° Northeast 462 532 23,800 -480 Descending Boston Center
09:09PM 40.9886 -73.2511 47° Northeast 449 517 23,000 -420 Descending Boston Center
09:10PM 41.0686 -73.1339 48° Northeast 438 504 23,000  Level Boston Center
09:11PM 41.1486 -73.0106 49° Northeast 433 498 23,000  Level Boston Center
09:12PM 41.2283 -72.8872 49° Northeast 433 498 23,000 -60 Level Boston Center
09:13PM 41.2786 -72.7550 63° Northeast 438 504 22,900 -60 Descending Boston Center
09:14PM 41.3353 -72.6058 63° Northeast 438 504 22,900  Level Boston Center
09:15PM 41.3875 -72.4622 64° Northeast 438 504 22,900 -660 Level Boston Center
09:16PM 41.4394 -72.3183 64° Northeast 438 504 21,600 -1,740 Descending Boston Center
09:17PM 41.4936 -72.1714 64° Northeast 421 484 19,500 -1,860 Descending Boston Center
09:18PM 41.5389 -72.0519 63° Northeast 399 459 17,900 -1,800 Descending Boston Center
09:19PM 41.5842 -71.9100 67° East 378 435 15,900 -2,100 Descending Boston Center
09:20PM 41.6192 -71.7958 68° East 368 423 13,800 -2,160 Descending Boston Center
09:21PM 41.6578 -71.6622 69° East 360 414 11,600 -1,440 Descending Boston Center
09:22PM 41.6903 -71.5478 69° East 340 391 11,000 -300 Descending Boston Center
09:23PM 41.7189 -71.4583 67° East 304 350 11,000  Level Boston Center
09:24PM 41.7700 -71.3544 57° Northeast 289 333 11,000  Level Boston Center
09:25PM 41.8192 -71.2814 48° Northeast 289 333 11,000 -840 Level Boston Center
09:26PM 41.9022 -71.2378 21° North 283 326 9,400 -1,500 Descending Boston Center
09:27PM 41.9686 -71.2031 21° North 288 331 8,100 -1,500 Descending Boston Center
09:28PM 42.0472 -71.1597 22° Northeast 282 325 6,500 -1,740 Descending Boston Center
09:29PM 42.1167 -71.1167 25° Northeast 268 308 4,900 -1,320 Descending KA90
09:30PM 42.1833 -71.1000 10° North 238 274 4,000 -960 Descending KA90
09:31PM 42.2167 -71.0667 37° Northeast 211 243 3,200 -1,020 Descending KA90